Boring, OR (97009)

3:27 PM PDT on September 03, 2015 (GMT -0700)
Mr. Lightning | | Change Station
CLOSE
Current Station
Personal Weather Station
Location: Damascus, OR
Elevation: 600 ft
Nearby Weather Stations

Elev 600 ft 45.43 °N, 122.42 °W | Updated 11 seconds ago

Partly Cloudy
Partly Cloudy
62.4 °F
Feels Like 62.4 °F
N
4.0
Wind Variable Wind from SSE
Gusts 7.0 mph

Today
High -- | Low -- °F
--% Chance of Precip.
Yesterday
High -- | Low -- °F
Precip. -- in
6:33 AM 7:43 PM
Waning Gibbous, 66% visible
Pressure 30.00 in
Visibility 10.0 miles
Clouds Mostly Cloudy 6000 ft
Overcast 7500 ft
Dew Point 46 °F
Humidity 56%
Rainfall 0.00 in
Snow Depth Not available.
UV 2 out of 12
Pollen 3.00 out of 12
Air Quality Not available.
Flu Activity Not available.
METAR KTTD 032153Z 31008KT 10SM BKN060 OVC075 18/07 A3000 RMK AO2 SLP158 T01830072
Pressure 30.00 in
Visibility 10.0 miles
Clouds Mostly Cloudy 6000 ft
Overcast 7500 ft
Dew Point 46 °F
Humidity 56%
Rainfall 0.00 in
Snow Depth Not available.
UV 2 out of 12
Pollen 3.00 out of 12
Air Quality Not available.
Flu Activity Not available.
METAR KTTD 032153Z 31008KT 10SM BKN060 OVC075 18/07 A3000 RMK AO2 SLP158 T01830072

10-Day Weather Forecast

×

Almanac

Astronomy

Sep. 03, 2015 Rise Set
Actual Time
Civil Twilight
Nautical Twilight
Astronomical Twilight
Moon
Length of Visible Light
Length of Day
Tomorrow will be .
, % of the Moon is Illuminated

Today's Extremes

State Highs State Lows

Community

WunderPhotos

Upload Photos

1,852,048 photos uploaded!

WunderBlogs® & News

Nearby

Air Quality

  Air Quality AQ Index Pollutant
Not available.

Snow Depth

Station Depth Elevation

Earthquake Activity

City Distance Mag. Time & Date
Minimum magnitude displayed is 2.5.

Coastal Water Temperatures

Place Temperature

Stations

Nearby Weather Stations

Station Location Temp. Windchill Dew Point Humidity Wind Precip. Elev Updated Type